Terminal Aerodrome Forecast
Issued by NWS

Home | Current Version | Previous Version | Text Only | Print | Product List | Glossary On
Versions: 1 2 3 4 5 6 7 8 9 10 11 12 13
000
FTUS43 KDDC 300544
TAFGCK
TAF
KGCK 300544Z 3006/0106 13007KT P6SM SKC
     FM301700 13013G18KT P6SM SKC
     FM302300 13007KT P6SM SKC=

USA.gov is the U.S. government's official web portal to all federal, state and local government web resources and services.